sensor_id;sensor_type;location;lat;lon;timestamp;pressure;altitude;pressure_sealevel;temperature;humidity
30598;BME280;17365;48.878;8.334;2023-03-08T00:02:01;98795.91;;;5.84;52.18
30598;BME280;17365;48.878;8.334;2023-03-08T00:04:26;98795.91;;;5.83;52.10
30598;BME280;17365;48.878;8.334;2023-03-08T00:06:51;98800.19;;;5.53;52.48
30598;BME280;17365;48.878;8.334;2023-03-08T00:09:17;98799.34;;;5.71;52.16
30598;BME280;17365;48.878;8.334;2023-03-08T00:11:42;98799.34;;;5.71;52.08
30598;BME280;17365;48.878;8.334;2023-03-08T00:14:07;98791.63;;;5.71;51.97
30598;BME280;17365;48.878;8.334;2023-03-08T00:16:32;98801.03;;;5.52;52.31
30598;BME280;17365;48.878;8.334;2023-03-08T00:18:57;98801.06;;;5.62;51.87
30598;BME280;17365;48.878;8.334;2023-03-08T00:21:23;98794.19;;;5.48;51.66
30598;BME280;17365;48.878;8.334;2023-03-08T00:23:50;98789.03;;;5.50;51.98
30598;BME280;17365;48.878;8.334;2023-03-08T00:26:15;98771.88;;;5.40;51.95
30598;BME280;17365;48.878;8.334;2023-03-08T00:28:40;98771.91;;;5.44;51.91
30598;BME280;17365;48.878;8.334;2023-03-08T00:31:09;98770.16;;;5.26;52.39
30598;BME280;17365;48.878;8.334;2023-03-08T00:33:35;98754.72;;;5.19;52.50
30598;BME280;17365;48.878;8.334;2023-03-08T00:36:01;98750.47;;;5.33;51.99
30598;BME280;17365;48.878;8.334;2023-03-08T00:38:27;98753.00;;;5.12;52.28
30598;BME280;17365;48.878;8.334;2023-03-08T00:40:52;98757.28;;;5.13;52.68
30598;BME280;17365;48.878;8.334;2023-03-08T00:43:18;98761.56;;;5.18;52.51
30598;BME280;17365;48.878;8.334;2023-03-08T00:45:43;98765.84;;;5.06;52.98
30598;BME280;17365;48.878;8.334;2023-03-08T00:48:08;98762.44;;;5.19;52.36
30598;BME280;17365;48.878;8.334;2023-03-08T00:50:33;98758.97;;;5.09;52.60
30598;BME280;17365;48.878;8.334;2023-03-08T00:52:59;98757.28;;;5.13;52.79
30598;BME280;17365;48.878;8.334;2023-03-08T00:55:24;98739.28;;;5.05;52.67
30598;BME280;17365;48.878;8.334;2023-03-08T00:57:49;98737.53;;;4.98;52.65
30598;BME280;17365;48.878;8.334;2023-03-08T01:00:14;98736.72;;;4.99;53.12
30598;BME280;17365;48.878;8.334;2023-03-08T01:02:40;98734.16;;;5.14;52.13
30598;BME280;17365;48.878;8.334;2023-03-08T01:05:05;98733.28;;;5.00;52.80
30598;BME280;17365;48.878;8.334;2023-03-08T01:07:31;98734.16;;;5.02;52.72
30598;BME280;17365;48.878;8.334;2023-03-08T01:09:56;98719.56;;;4.93;52.58
30598;BME280;17365;48.878;8.334;2023-03-08T01:12:21;98720.41;;;4.88;53.06
30598;BME280;17365;48.878;8.334;2023-03-08T01:14:47;98716.97;;;4.80;53.51
30598;BME280;17365;48.878;8.334;2023-03-08T01:17:13;98715.31;;;4.99;52.86
30598;BME280;17365;48.878;8.334;2023-03-08T01:19:38;98709.28;;;4.87;53.07
30598;BME280;17365;48.878;8.334;2023-03-08T01:22:03;98701.56;;;4.89;53.02
30598;BME280;17365;48.878;8.334;2023-03-08T01:24:28;98700.69;;;4.84;52.86
30598;BME280;17365;48.878;8.334;2023-03-08T01:26:53;98689.56;;;4.85;52.78
30598;BME280;17365;48.878;8.334;2023-03-08T01:29:22;98689.59;;;4.92;52.40
30598;BME280;17365;48.878;8.334;2023-03-08T01:31:47;98693.88;;;4.90;52.57
30598;BME280;17365;48.878;8.334;2023-03-08T01:34:13;98688.72;;;4.77;53.07
30598;BME280;17365;48.878;8.334;2023-03-08T01:36:38;98680.13;;;4.85;52.67
30598;BME280;17365;48.878;8.334;2023-03-08T01:39:03;98685.28;;;4.85;52.88
30598;BME280;17365;48.878;8.334;2023-03-08T01:41:28;98675.88;;;4.77;52.64
30598;BME280;17365;48.878;8.334;2023-03-08T01:43:54;98680.13;;;4.68;53.51
30598;BME280;17365;48.878;8.334;2023-03-08T01:51:36;98669.88;;;4.79;53.25
30598;BME280;17365;48.878;8.334;2023-03-08T01:54:05;98667.31;;;4.78;52.84
30598;BME280;17365;48.878;8.334;2023-03-08T01:56:32;98667.31;;;4.90;52.79
30598;BME280;17365;48.878;8.334;2023-03-08T01:58:57;98655.31;;;4.86;53.10
30598;BME280;17365;48.878;8.334;2023-03-08T02:01:22;98657.91;;;4.89;52.88
30598;BME280;17365;48.878;8.334;2023-03-08T02:03:48;98649.34;;;4.88;53.17
30598;BME280;17365;48.878;8.334;2023-03-08T02:06:14;98655.31;;;4.92;52.87
30598;BME280;17365;48.878;8.334;2023-03-08T02:08:39;98657.03;;;5.05;52.74
30598;BME280;17365;48.878;8.334;2023-03-08T02:11:06;98661.31;;;5.08;52.39
30598;BME280;17365;48.878;8.334;2023-03-08T02:13:31;98650.19;;;5.24;52.12
30598;BME280;17365;48.878;8.334;2023-03-08T02:15:57;98645.06;;;5.24;52.07
30598;BME280;17365;48.878;8.334;2023-03-08T02:18:22;98642.47;;;5.25;51.62
30598;BME280;17365;48.878;8.334;2023-03-08T02:20:48;98633.03;;;5.20;51.72
30598;BME280;17365;48.878;8.334;2023-03-08T02:23:14;98634.78;;;5.22;51.88
30598;BME280;17365;48.878;8.334;2023-03-08T02:25:40;98627.91;;;5.29;51.73
30598;BME280;17365;48.878;8.334;2023-03-08T02:28:05;98628.75;;;5.28;51.53
30598;BME280;17365;48.878;8.334;2023-03-08T02:30:32;98627.91;;;5.34;51.42
30598;BME280;17365;48.878;8.334;2023-03-08T02:32:58;98611.63;;;5.36;51.46
30598;BME280;17365;48.878;8.334;2023-03-08T02:35:23;98611.63;;;5.35;51.04
30598;BME280;17365;48.878;8.334;2023-03-08T02:37:48;98608.19;;;5.39;50.80
30598;BME280;17365;48.878;8.334;2023-03-08T02:40:14;98604.75;;;5.40;50.93
30598;BME280;17365;48.878;8.334;2023-03-08T02:42:39;98589.31;;;5.44;51.10
30598;BME280;17365;48.878;8.334;2023-03-08T02:45:05;98584.19;;;5.38;50.65
30598;BME280;17365;48.878;8.334;2023-03-08T02:47:30;98579.06;;;5.29;50.83
30598;BME280;17365;48.878;8.334;2023-03-08T02:49:55;98581.59;;;5.49;50.75
30598;BME280;17365;48.878;8.334;2023-03-08T02:52:20;98579.00;;;5.50;50.66
30598;BME280;17365;48.878;8.334;2023-03-08T02:54:46;98576.41;;;5.58;50.42
30598;BME280;17365;48.878;8.334;2023-03-08T02:57:11;98576.38;;;5.64;50.36
30598;BME280;17365;48.878;8.334;2023-03-08T02:59:36;98549.03;;;5.42;50.61
30598;BME280;17365;48.878;8.334;2023-03-08T03:02:01;98555.00;;;5.56;50.38
30598;BME280;17365;48.878;8.334;2023-03-08T03:04:30;98556.72;;;5.48;50.45
30598;BME280;17365;48.878;8.334;2023-03-08T03:06:56;98558.50;;;5.26;51.30
30598;BME280;17365;48.878;8.334;2023-03-08T03:09:21;98543.03;;;5.40;51.11
30598;BME280;17365;48.878;8.334;2023-03-08T03:11:46;98543.03;;;5.32;51.33
30598;BME280;17365;48.878;8.334;2023-03-08T03:14:11;98526.81;;;5.22;51.22
30598;BME280;17365;48.878;8.334;2023-03-08T03:16:36;98527.66;;;5.18;51.04
30598;BME280;17365;48.878;8.334;2023-03-08T03:19:02;98520.78;;;5.30;51.06
30598;BME280;17365;48.878;8.334;2023-03-08T03:21:27;98519.06;;;5.27;51.14
30598;BME280;17365;48.878;8.334;2023-03-08T03:23:53;98519.94;;;5.28;50.87
30598;BME280;17365;48.878;8.334;2023-03-08T03:26:19;98517.41;;;5.06;51.36
30598;BME280;17365;48.878;8.334;2023-03-08T03:28:45;98517.38;;;5.26;51.38
30598;BME280;17365;48.878;8.334;2023-03-08T03:31:12;98516.47;;;5.38;50.92
30598;BME280;17365;48.878;8.334;2023-03-08T03:33:38;98515.69;;;5.04;51.98
30598;BME280;17365;48.878;8.334;2023-03-08T03:36:04;98517.44;;;5.00;51.77
30598;BME280;17365;48.878;8.334;2023-03-08T03:38:29;98502.00;;;5.11;51.55
30598;BME280;17365;48.878;8.334;2023-03-08T03:41:02;98500.28;;;5.13;51.71
30598;BME280;17365;48.878;8.334;2023-03-08T03:43:27;98499.38;;;5.20;51.77
30598;BME280;17365;48.878;8.334;2023-03-08T03:45:56;98500.28;;;5.13;52.01
30598;BME280;17365;48.878;8.334;2023-03-08T03:48:21;98496.81;;;5.20;52.12
30598;BME280;17365;48.878;8.334;2023-03-08T03:50:52;98501.09;;;5.18;52.41
30598;BME280;17365;48.878;8.334;2023-03-08T03:53:17;98504.47;;;5.31;51.75
30598;BME280;17365;48.878;8.334;2023-03-08T03:55:42;98497.63;;;5.37;51.72
30598;BME280;17365;48.878;8.334;2023-03-08T03:58:08;98513.09;;;5.16;53.01
30598;BME280;17365;48.878;8.334;2023-03-08T04:00:33;98508.81;;;5.24;52.29
30598;BME280;17365;48.878;8.334;2023-03-08T04:02:58;98503.72;;;5.10;52.82
30598;BME280;17365;48.878;8.334;2023-03-08T04:05:23;98503.66;;;5.27;52.33
30598;BME280;17365;48.878;8.334;2023-03-08T04:07:48;98511.44;;;5.03;52.94
30598;BME280;17365;48.878;8.334;2023-03-08T04:10:14;98516.53;;;5.18;52.77
30598;BME280;17365;48.878;8.334;2023-03-08T04:12:39;98515.66;;;5.22;52.43
30598;BME280;17365;48.878;8.334;2023-03-08T04:15:04;98501.97;;;5.21;52.73
30598;BME280;17365;48.878;8.334;2023-03-08T04:17:30;98489.13;;;5.11;53.09
30598;BME280;17365;48.878;8.334;2023-03-08T04:19:55;98491.69;;;5.14;53.23
30598;BME280;17365;48.878;8.334;2023-03-08T04:22:20;98479.69;;;5.23;52.71
30598;BME280;17365;48.878;8.334;2023-03-08T04:24:45;98476.22;;;5.26;52.63
30598;BME280;17365;48.878;8.334;2023-03-08T04:27:10;98469.44;;;5.04;53.08
30598;BME280;17365;48.878;8.334;2023-03-08T04:29:35;98462.59;;;5.03;53.44
30598;BME280;17365;48.878;8.334;2023-03-08T04:32:01;98467.75;;;4.96;53.30
30598;BME280;17365;48.878;8.334;2023-03-08T04:34:26;98471.13;;;5.17;52.66
30598;BME280;17365;48.878;8.334;2023-03-08T04:36:51;98460.81;;;5.20;52.67
30598;BME280;17365;48.878;8.334;2023-03-08T04:39:17;98455.69;;;5.21;53.02
30598;BME280;17365;48.878;8.334;2023-03-08T04:41:42;98462.63;;;4.86;54.38
30598;BME280;17365;48.878;8.334;2023-03-08T04:44:07;98453.13;;;5.09;54.06
30598;BME280;17365;48.878;8.334;2023-03-08T04:46:32;98446.19;;;5.39;53.15
30598;BME280;17365;48.878;8.334;2023-03-08T04:48:57;98454.84;;;5.18;53.62
30598;BME280;17365;48.878;8.334;2023-03-08T04:51:23;98456.66;;;4.62;55.91
30598;BME280;17365;48.878;8.334;2023-03-08T04:53:49;98462.66;;;4.60;55.76
30598;BME280;17365;48.878;8.334;2023-03-08T04:56:14;98458.41;;;4.47;56.42
30598;BME280;17365;48.878;8.334;2023-03-08T04:58:40;98459.25;;;4.59;56.51
30598;BME280;17365;48.878;8.334;2023-03-08T05:01:13;98441.22;;;4.91;55.30
30598;BME280;17365;48.878;8.334;2023-03-08T05:03:39;98442.06;;;4.92;55.67
30598;BME280;17365;48.878;8.334;2023-03-08T05:06:04;98431.78;;;4.93;55.36
30598;BME280;17365;48.878;8.334;2023-03-08T05:08:30;98433.50;;;4.90;55.53
30598;BME280;17365;48.878;8.334;2023-03-08T05:10:56;98432.66;;;4.88;55.66
30598;BME280;17365;48.878;8.334;2023-03-08T05:13:22;98419.75;;;5.08;55.16
30598;BME280;17365;48.878;8.334;2023-03-08T05:15:47;98415.44;;;5.16;54.61
30598;BME280;17365;48.878;8.334;2023-03-08T05:18:12;98409.47;;;5.05;54.27
30598;BME280;17365;48.878;8.334;2023-03-08T05:20:38;98412.88;;;5.14;55.09
30598;BME280;17365;48.878;8.334;2023-03-08T05:23:03;98412.00;;;5.18;54.30
30598;BME280;17365;48.878;8.334;2023-03-08T05:25:28;98411.16;;;5.09;54.48
30598;BME280;17365;48.878;8.334;2023-03-08T05:27:54;98422.25;;;5.28;54.35
30598;BME280;17365;48.878;8.334;2023-03-08T05:30:20;98413.63;;;5.38;54.08
30598;BME280;17365;48.878;8.334;2023-03-08T05:32:45;98414.56;;;5.24;54.76
30598;BME280;17365;48.878;8.334;2023-03-08T05:35:10;98424.88;;;5.14;54.88
30598;BME280;17365;48.878;8.334;2023-03-08T05:37:35;98428.34;;;4.97;55.79
30598;BME280;17365;48.878;8.334;2023-03-08T05:40:00;98422.31;;;5.12;55.58
30598;BME280;17365;48.878;8.334;2023-03-08T05:42:26;98417.16;;;5.15;55.42
30598;BME280;17365;48.878;8.334;2023-03-08T05:44:51;98410.22;;;5.36;54.72
30598;BME280;17365;48.878;8.334;2023-03-08T05:47:17;98406.00;;;5.21;55.84
30598;BME280;17365;48.878;8.334;2023-03-08T05:49:42;98395.72;;;5.22;55.85
30598;BME280;17365;48.878;8.334;2023-03-08T05:52:07;98401.72;;;5.21;56.11
30598;BME280;17365;48.878;8.334;2023-03-08T05:54:32;98392.25;;;5.20;56.41
30598;BME280;17365;48.878;8.334;2023-03-08T05:56:57;98389.75;;;5.08;57.05
30598;BME280;17365;48.878;8.334;2023-03-08T05:59:22;98381.91;;;5.40;55.94
30598;BME280;17365;48.878;8.334;2023-03-08T06:01:48;98384.59;;;5.08;57.31
30598;BME280;17365;48.878;8.334;2023-03-08T06:04:13;98386.28;;;5.17;57.14
30598;BME280;17365;48.878;8.334;2023-03-08T06:06:38;98383.78;;;5.11;57.39
30598;BME280;17365;48.878;8.334;2023-03-08T06:09:03;98380.41;;;4.92;58.29
30598;BME280;17365;48.878;8.334;2023-03-08T06:11:28;98378.56;;;5.20;57.54
30598;BME280;17365;48.878;8.334;2023-03-08T06:13:54;98375.13;;;5.27;57.68
30598;BME280;17365;48.878;8.334;2023-03-08T06:16:19;98365.72;;;5.21;58.62
30598;BME280;17365;48.878;8.334;2023-03-08T06:18:44;98365.66;;;5.34;58.68
30598;BME280;17365;48.878;8.334;2023-03-08T06:21:10;98368.22;;;5.35;58.91
30598;BME280;17365;48.878;8.334;2023-03-08T06:23:36;98368.97;;;5.51;58.39
30598;BME280;17365;48.878;8.334;2023-03-08T06:26:02;98365.63;;;5.37;60.48
30598;BME280;17365;48.878;8.334;2023-03-08T06:28:28;98360.59;;;5.15;63.56
30598;BME280;17365;48.878;8.334;2023-03-08T06:30:54;98353.66;;;5.30;62.73
30598;BME280;17365;48.878;8.334;2023-03-08T06:33:20;98349.50;;;5.06;66.23
30598;BME280;17365;48.878;8.334;2023-03-08T06:35:56;98351.28;;;4.91;69.04
30598;BME280;17365;48.878;8.334;2023-03-08T06:38:22;98349.50;;;5.12;68.59
30598;BME280;17365;48.878;8.334;2023-03-08T06:40:47;98345.28;;;4.91;71.92
30598;BME280;17365;48.878;8.334;2023-03-08T06:43:13;98342.69;;;5.00;72.99
30598;BME280;17365;48.878;8.334;2023-03-08T06:45:38;98342.78;;;4.76;76.88
30598;BME280;17365;48.878;8.334;2023-03-08T06:48:03;98345.34;;;4.79;77.95
30598;BME280;17365;48.878;8.334;2023-03-08T06:50:29;98332.50;;;4.77;78.57
30598;BME280;17365;48.878;8.334;2023-03-08T06:52:54;98333.31;;;4.88;79.07
30598;BME280;17365;48.878;8.334;2023-03-08T06:55:19;98324.84;;;4.60;81.52
30598;BME280;17365;48.878;8.334;2023-03-08T06:57:44;98321.41;;;4.61;81.50
30598;BME280;17365;48.878;8.334;2023-03-08T07:00:11;98313.75;;;4.58;81.88
30598;BME280;17365;48.878;8.334;2023-03-08T07:02:37;98300.81;;;4.75;82.22
30598;BME280;17365;48.878;8.334;2023-03-08T07:05:02;98296.47;;;4.94;80.90
30598;BME280;17365;48.878;8.334;2023-03-08T07:07:27;98299.16;;;4.70;84.25
30598;BME280;17365;48.878;8.334;2023-03-08T07:09:52;98298.31;;;4.67;85.60
30598;BME280;17365;48.878;8.334;2023-03-08T07:12:18;98294.66;;;5.08;81.83
30598;BME280;17365;48.878;8.334;2023-03-08T07:14:43;98288.59;;;5.20;82.51
30598;BME280;17365;48.878;8.334;2023-03-08T07:17:08;98275.66;;;5.35;80.28
30598;BME280;17365;48.878;8.334;2023-03-08T07:19:33;98267.94;;;5.37;80.53
30598;BME280;17365;48.878;8.334;2023-03-08T07:21:58;98270.44;;;5.46;80.30
30598;BME280;17365;48.878;8.334;2023-03-08T07:24:23;98268.69;;;5.49;80.65
30598;BME280;17365;48.878;8.334;2023-03-08T07:26:49;98266.88;;;5.62;78.53
30598;BME280;17365;48.878;8.334;2023-03-08T07:29:14;98266.00;;;5.63;79.25
30598;BME280;17365;48.878;8.334;2023-03-08T07:31:39;98268.72;;;5.48;81.03
30598;BME280;17365;48.878;8.334;2023-03-08T07:34:04;98261.78;;;5.58;81.26
30598;BME280;17365;48.878;8.334;2023-03-08T07:36:31;98260.00;;;5.63;79.78
30598;BME280;17365;48.878;8.334;2023-03-08T07:38:56;98243.78;;;5.56;80.36
30598;BME280;17365;48.878;8.334;2023-03-08T07:41:21;98230.78;;;5.73;79.32
30598;BME280;17365;48.878;8.334;2023-03-08T07:43:46;98232.47;;;5.75;78.82
30598;BME280;17365;48.878;8.334;2023-03-08T07:46:11;98218.72;;;5.79;79.07
30598;BME280;17365;48.878;8.334;2023-03-08T07:48:36;98222.75;;;5.02;86.40
30598;BME280;17365;48.878;8.334;2023-03-08T07:51:05;98208.84;;;5.34;83.56
30598;BME280;17365;48.878;8.334;2023-03-08T07:53:31;98208.75;;;5.41;83.14
30598;BME280;17365;48.878;8.334;2023-03-08T07:55:57;98203.41;;;5.64;80.48
30598;BME280;17365;48.878;8.334;2023-03-08T07:58:23;98197.38;;;5.68;80.65
30598;BME280;17365;48.878;8.334;2023-03-08T08:00:48;98188.94;;;5.54;82.19
30598;BME280;17365;48.878;8.334;2023-03-08T08:03:13;98182.81;;;5.67;82.68
30598;BME280;17365;48.878;8.334;2023-03-08T08:05:39;98179.53;;;5.50;85.14
30598;BME280;17365;48.878;8.334;2023-03-08T08:08:04;98174.31;;;5.59;83.83
30598;BME280;17365;48.878;8.334;2023-03-08T08:10:29;98167.28;;;5.75;82.85
30598;BME280;17365;48.878;8.334;2023-03-08T08:12:54;98174.19;;;5.71;84.09
30598;BME280;17365;48.878;8.334;2023-03-08T08:15:19;98164.72;;;5.75;83.66
30598;BME280;17365;48.878;8.334;2023-03-08T08:17:45;98168.19;;;5.72;83.61
30598;BME280;17365;48.878;8.334;2023-03-08T08:20:10;98158.28;;;5.34;86.83
30598;BME280;17365;48.878;8.334;2023-03-08T08:22:36;98157.97;;;5.63;84.28
30598;BME280;17365;48.878;8.334;2023-03-08T08:25:02;98154.59;;;5.60;85.41
30598;BME280;17365;48.878;8.334;2023-03-08T08:27:28;98159.00;;;5.48;86.10
30598;BME280;17365;48.878;8.334;2023-03-08T08:29:53;98148.44;;;5.73;83.82
30598;BME280;17365;48.878;8.334;2023-03-08T08:32:18;98137.28;;;4.80;89.82
30598;BME280;17365;48.878;8.334;2023-03-08T08:34:43;98138.56;;;5.32;88.73
30598;BME280;17365;48.878;8.334;2023-03-08T08:37:09;98130.66;;;5.51;88.09
30598;BME280;17365;48.878;8.334;2023-03-08T08:39:34;98114.47;;;5.42;87.05
30598;BME280;17365;48.878;8.334;2023-03-08T08:41:59;98111.78;;;5.52;88.91
30598;BME280;17365;48.878;8.334;2023-03-08T08:44:24;98095.13;;;5.85;86.01
30598;BME280;17365;48.878;8.334;2023-03-08T08:46:50;98101.19;;;5.81;86.66
30598;BME280;17365;48.878;8.334;2023-03-08T08:49:15;98107.16;;;5.85;86.70
30598;BME280;17365;48.878;8.334;2023-03-08T08:51:40;98092.16;;;5.45;89.45
30598;BME280;17365;48.878;8.334;2023-03-08T08:54:05;98088.13;;;5.18;92.79
30598;BME280;17365;48.878;8.334;2023-03-08T08:56:30;98076.44;;;5.73;88.74
30598;BME280;17365;48.878;8.334;2023-03-08T08:58:56;98070.22;;;5.92;87.52
30598;BME280;17365;48.878;8.334;2023-03-08T09:01:25;98058.81;;;6.10;86.09
30598;BME280;17365;48.878;8.334;2023-03-08T09:03:50;98052.06;;;6.04;86.61
30598;BME280;17365;48.878;8.334;2023-03-08T09:06:16;98065.78;;;6.05;86.38
30598;BME280;17365;48.878;8.334;2023-03-08T09:08:43;98053.19;;;5.77;89.31
30598;BME280;17365;48.878;8.334;2023-03-08T09:11:09;98052.91;;;6.05;88.06
30598;BME280;17365;48.878;8.334;2023-03-08T09:13:34;98049.16;;;5.58;90.80
30598;BME280;17365;48.878;8.334;2023-03-08T09:16:02;98052.88;;;5.34;94.43
30598;BME280;17365;48.878;8.334;2023-03-08T09:18:27;98045.16;;;5.34;94.37
30598;BME280;17365;48.878;8.334;2023-03-08T09:20:52;98044.44;;;5.95;90.11
30598;BME280;17365;48.878;8.334;2023-03-08T09:23:17;98040.72;;;5.48;93.64
30598;BME280;17365;48.878;8.334;2023-03-08T09:25:43;98017.94;;;5.85;92.11
30598;BME280;17365;48.878;8.334;2023-03-08T09:28:09;98027.00;;;5.48;94.72
30598;BME280;17365;48.878;8.334;2023-03-08T09:30:35;98024.84;;;5.08;98.11
30598;BME280;17365;48.878;8.334;2023-03-08T09:33:00;98025.56;;;5.19;97.11
30598;BME280;17365;48.878;8.334;2023-03-08T09:35:26;98019.38;;;5.39;98.02
30598;BME280;17365;48.878;8.334;2023-03-08T09:37:51;98012.41;;;5.50;98.42
30598;BME280;17365;48.878;8.334;2023-03-08T09:40:17;98013.78;;;5.75;97.45
30598;BME280;17365;48.878;8.334;2023-03-08T09:42:44;98005.50;;;5.52;97.45
30598;BME280;17365;48.878;8.334;2023-03-08T09:52:59;97998.94;;;5.26;100.00
30598;BME280;17365;48.878;8.334;2023-03-08T09:55:28;97993.59;;;5.43;100.00
30598;BME280;17365;48.878;8.334;2023-03-08T09:57:55;97999.13;;;5.08;100.00
30598;BME280;17365;48.878;8.334;2023-03-08T10:00:31;97993.78;;;5.30;100.00
30598;BME280;17365;48.878;8.334;2023-03-08T10:05:45;97971.41;;;6.04;100.00
30598;BME280;17365;48.878;8.334;2023-03-08T10:08:15;97975.75;;;6.02;100.00
30598;BME280;17365;48.878;8.334;2023-03-08T10:15:42;97952.44;;;6.12;100.00
30598;BME280;17365;48.878;8.334;2023-03-08T10:20:34;97959.09;;;6.23;100.00
30598;BME280;17365;48.878;8.334;2023-03-08T10:25:32;97956.41;;;6.30;100.00
30598;BME280;17365;48.878;8.334;2023-03-08T10:27:59;97931.13;;;6.54;100.00
30598;BME280;17365;48.878;8.334;2023-03-08T10:30:26;97916.13;;;6.77;100.00
30598;BME280;17365;48.878;8.334;2023-03-08T10:32:53;97920.81;;;7.03;100.00
30598;BME280;17365;48.878;8.334;2023-03-08T10:35:29;97915.19;;;7.26;99.30
30598;BME280;17365;48.878;8.334;2023-03-08T10:37:55;97912.19;;;7.46;99.68
30598;BME280;17365;48.878;8.334;2023-03-08T10:40:20;97911.81;;;7.64;97.87
30598;BME280;17365;48.878;8.334;2023-03-08T10:42:56;97913.75;;;7.92;96.19
30598;BME280;17365;48.878;8.334;2023-03-08T10:45:25;97917.78;;;8.03;97.36
30598;BME280;17365;48.878;8.334;2023-03-08T10:48:01;97916.75;;;8.10;97.07
30598;BME280;17365;48.878;8.334;2023-03-08T10:50:34;97914.94;;;8.15;96.43
30598;BME280;17365;48.878;8.334;2023-03-08T10:53:10;97909.47;;;8.28;95.54
30598;BME280;17365;48.878;8.334;2023-03-08T10:55:41;97905.88;;;8.33;93.96
30598;BME280;17365;48.878;8.334;2023-03-08T10:58:20;97900.41;;;8.47;93.70
30598;BME280;17365;48.878;8.334;2023-03-08T11:00:46;97894.19;;;8.54;93.65
30598;BME280;17365;48.878;8.334;2023-03-08T11:03:19;97893.16;;;8.61;93.00
30598;BME280;17365;48.878;8.334;2023-03-08T11:08:20;97894.50;;;8.76;92.40
30598;BME280;17365;48.878;8.334;2023-03-08T11:10:46;97901.22;;;8.82;91.76
30598;BME280;17365;48.878;8.334;2023-03-08T11:15:40;97913.66;;;9.00;90.65
30598;BME280;17365;48.878;8.334;2023-03-08T11:20:45;97909.03;;;9.11;89.93
30598;BME280;17365;48.878;8.334;2023-03-08T11:23:34;97905.41;;;9.18;89.95
30598;BME280;17365;48.878;8.334;2023-03-08T11:26:03;97898.50;;;9.19;90.23
30598;BME280;17365;48.878;8.334;2023-03-08T11:31:11;97905.22;;;9.24;89.37
30598;BME280;17365;48.878;8.334;2023-03-08T11:38:53;97894.88;;;9.54;88.07
30598;BME280;17365;48.878;8.334;2023-03-08T11:47:14;97900.25;;;9.76;86.80
30598;BME280;17365;48.878;8.334;2023-03-08T11:57:10;97896.28;;;9.92;85.99
30598;BME280;17365;48.878;8.334;2023-03-08T11:59:41;97898.66;;;10.00;85.90
30598;BME280;17365;48.878;8.334;2023-03-08T12:05:24;97903.34;;;10.15;85.01
30598;BME280;17365;48.878;8.334;2023-03-08T12:07:45;97902.44;;;10.16;85.60
30598;BME280;17365;48.878;8.334;2023-03-08T12:10:28;97909.25;;;10.20;84.92
30598;BME280;17365;48.878;8.334;2023-03-08T12:15:36;97913.53;;;10.21;84.83
30598;BME280;17365;48.878;8.334;2023-03-08T12:18:17;97915.25;;;10.22;84.47
30598;BME280;17365;48.878;8.334;2023-03-08T12:20:44;97916.72;;;10.29;83.96
30598;BME280;17365;48.878;8.334;2023-03-08T12:23:22;97912.66;;;10.22;84.93
30598;BME280;17365;48.878;8.334;2023-03-08T12:25:51;97910.63;;;10.30;84.57
30598;BME280;17365;48.878;8.334;2023-03-08T12:28:20;97910.47;;;10.36;84.67
30598;BME280;17365;48.878;8.334;2023-03-08T12:33:26;97899.63;;;10.50;83.79
30598;BME280;17365;48.878;8.334;2023-03-08T12:35:57;97892.41;;;10.60;83.32
30598;BME280;17365;48.878;8.334;2023-03-08T12:38:27;97885.22;;;10.68;82.56
30598;BME280;17365;48.878;8.334;2023-03-08T12:40:53;97891.00;;;10.76;82.50
30598;BME280;17365;48.878;8.334;2023-03-08T12:45:44;97891.59;;;10.83;82.53
30598;BME280;17365;48.878;8.334;2023-03-08T12:48:21;97898.09;;;10.94;81.96
30598;BME280;17365;48.878;8.334;2023-03-08T12:55:57;97889.09;;;11.04;82.18
30598;BME280;17365;48.878;8.334;2023-03-08T12:58:22;97876.91;;;11.06;81.77
30598;BME280;17365;48.878;8.334;2023-03-08T13:00:55;97889.81;;;11.08;81.77
30598;BME280;17365;48.878;8.334;2023-03-08T13:05:46;97875.63;;;11.18;81.40
30598;BME280;17365;48.878;8.334;2023-03-08T13:11:03;97871.19;;;11.22;81.08
30598;BME280;17365;48.878;8.334;2023-03-08T13:13:39;97874.38;;;11.28;80.94
30598;BME280;17365;48.878;8.334;2023-03-08T13:18:38;97881.25;;;11.29;80.97
30598;BME280;17365;48.878;8.334;2023-03-08T13:23:40;97871.91;;;11.25;80.90
30598;BME280;17365;48.878;8.334;2023-03-08T13:26:17;97875.09;;;11.32;80.55
30598;BME280;17365;48.878;8.334;2023-03-08T13:28:45;97871.84;;;11.27;81.14
30598;BME280;17365;48.878;8.334;2023-03-08T13:33:43;97872.97;;;11.20;85.88
30598;BME280;17365;48.878;8.334;2023-03-08T13:36:28;97874.91;;;11.15;86.99
30598;BME280;17365;48.878;8.334;2023-03-08T13:38:59;97882.22;;;11.03;88.29
30598;BME280;17365;48.878;8.334;2023-03-08T13:43:59;97880.06;;;10.91;91.20
30598;BME280;17365;48.878;8.334;2023-03-08T13:46:24;97856.03;;;10.86;90.72
30598;BME280;17365;48.878;8.334;2023-03-08T13:48:50;97858.28;;;10.95;89.70
30598;BME280;17365;48.878;8.334;2023-03-08T13:51:15;97866.00;;;10.97;89.18
30598;BME280;17365;48.878;8.334;2023-03-08T13:53:42;97861.66;;;10.99;88.89
30598;BME280;17365;48.878;8.334;2023-03-08T13:56:18;97870.72;;;11.11;87.50
30598;BME280;17365;48.878;8.334;2023-03-08T13:58:45;97866.16;;;11.17;86.29
30598;BME280;17365;48.878;8.334;2023-03-08T14:01:13;97871.41;;;11.16;86.25
30598;BME280;17365;48.878;8.334;2023-03-08T14:03:39;97888.53;;;11.20;85.37
30598;BME280;17365;48.878;8.334;2023-03-08T14:08:45;97897.56;;;11.09;88.91
30598;BME280;17365;48.878;8.334;2023-03-08T14:11:18;97894.50;;;10.98;90.69
30598;BME280;17365;48.878;8.334;2023-03-08T14:13:45;97885.13;;;10.94;91.27
30598;BME280;17365;48.878;8.334;2023-03-08T14:16:22;97886.03;;;10.93;91.94
30598;BME280;17365;48.878;8.334;2023-03-08T14:18:47;97886.16;;;10.90;92.93
30598;BME280;17365;48.878;8.334;2023-03-08T14:21:13;97881.97;;;10.86;93.09
30598;BME280;17365;48.878;8.334;2023-03-08T14:23:40;97880.19;;;10.88;92.67
30598;BME280;17365;48.878;8.334;2023-03-08T14:26:21;97880.00;;;10.93;92.26
30598;BME280;17365;48.878;8.334;2023-03-08T14:28:46;97876.50;;;10.94;91.65
30598;BME280;17365;48.878;8.334;2023-03-08T14:31:24;97872.50;;;11.08;90.49
30598;BME280;17365;48.878;8.334;2023-03-08T14:33:54;97871.53;;;11.13;90.12
30598;BME280;17365;48.878;8.334;2023-03-08T14:36:20;97864.53;;;11.15;89.38